sensor_id;sensor_type;location;lat;lon;timestamp;P1;durP1;ratioP1;P2;durP2;ratioP2
72645;SDS011;60687;53.876;10.674;2023-03-11T00:01:03;14.73;;;6.80;;
72645;SDS011;60687;53.876;10.674;2023-03-11T00:11:05;12.00;;;5.97;;
72645;SDS011;60687;53.876;10.674;2023-03-11T00:21:13;13.33;;;6.27;;
72645;SDS011;60687;53.876;10.674;2023-03-11T00:31:17;13.30;;;7.43;;
72645;SDS011;60687;53.876;10.674;2023-03-11T00:41:20;15.02;;;8.63;;
72645;SDS011;60687;53.876;10.674;2023-03-11T00:51:22;15.87;;;7.80;;
72645;SDS011;60687;53.876;10.674;2023-03-11T01:01:27;16.93;;;8.17;;
72645;SDS011;60687;53.876;10.674;2023-03-11T01:11:33;13.32;;;7.30;;
72645;SDS011;60687;53.876;10.674;2023-03-11T01:21:37;11.27;;;6.22;;
72645;SDS011;60687;53.876;10.674;2023-03-11T01:31:40;10.87;;;5.60;;
72645;SDS011;60687;53.876;10.674;2023-03-11T01:41:44;12.43;;;6.00;;
72645;SDS011;60687;53.876;10.674;2023-03-11T01:51:48;11.27;;;5.72;;
72645;SDS011;60687;53.876;10.674;2023-03-11T02:01:56;12.87;;;7.50;;
72645;SDS011;60687;53.876;10.674;2023-03-11T02:12:03;15.57;;;7.70;;
72645;SDS011;60687;53.876;10.674;2023-03-11T02:22:10;14.63;;;7.20;;
72645;SDS011;60687;53.876;10.674;2023-03-11T02:32:15;13.33;;;6.60;;
72645;SDS011;60687;53.876;10.674;2023-03-11T02:42:21;13.20;;;7.37;;
72645;SDS011;60687;53.876;10.674;2023-03-11T02:52:27;13.57;;;7.63;;
72645;SDS011;60687;53.876;10.674;2023-03-11T03:02:32;13.90;;;7.85;;
72645;SDS011;60687;53.876;10.674;2023-03-11T03:12:36;14.27;;;7.30;;
72645;SDS011;60687;53.876;10.674;2023-03-11T03:22:39;14.23;;;7.67;;
72645;SDS011;60687;53.876;10.674;2023-03-11T03:32:45;13.98;;;7.57;;
72645;SDS011;60687;53.876;10.674;2023-03-11T03:54:15;13.13;;;7.30;;
72645;SDS011;60687;53.876;10.674;2023-03-11T04:04:17;14.40;;;8.32;;
72645;SDS011;60687;53.876;10.674;2023-03-11T04:14:21;23.07;;;12.60;;
72645;SDS011;60687;53.876;10.674;2023-03-11T04:24:29;17.57;;;9.70;;
72645;SDS011;60687;53.876;10.674;2023-03-11T04:34:33;18.33;;;11.15;;
72645;SDS011;60687;53.876;10.674;2023-03-11T04:44:35;22.38;;;11.57;;
72645;SDS011;60687;53.876;10.674;2023-03-11T04:54:40;17.47;;;10.93;;
72645;SDS011;60687;53.876;10.674;2023-03-11T05:04:43;15.90;;;9.20;;
72645;SDS011;60687;53.876;10.674;2023-03-11T05:14:49;15.77;;;8.30;;
72645;SDS011;60687;53.876;10.674;2023-03-11T05:24:51;18.23;;;9.57;;
72645;SDS011;60687;53.876;10.674;2023-03-11T05:34:55;15.10;;;8.67;;
72645;SDS011;60687;53.876;10.674;2023-03-11T05:44:58;17.05;;;9.07;;
72645;SDS011;60687;53.876;10.674;2023-03-11T05:55:03;15.63;;;8.77;;
72645;SDS011;60687;53.876;10.674;2023-03-11T06:05:07;13.97;;;7.70;;
72645;SDS011;60687;53.876;10.674;2023-03-11T06:15:12;15.43;;;8.63;;
72645;SDS011;60687;53.876;10.674;2023-03-11T06:25:15;15.00;;;8.63;;
72645;SDS011;60687;53.876;10.674;2023-03-11T06:35:20;15.90;;;8.27;;
72645;SDS011;60687;53.876;10.674;2023-03-11T06:45:25;15.47;;;7.50;;
72645;SDS011;60687;53.876;10.674;2023-03-11T06:55:30;14.35;;;7.60;;
72645;SDS011;60687;53.876;10.674;2023-03-11T07:05:33;14.83;;;7.93;;
72645;SDS011;60687;53.876;10.674;2023-03-11T07:15:42;15.40;;;8.37;;
72645;SDS011;60687;53.876;10.674;2023-03-11T07:25:45;13.82;;;7.93;;
72645;SDS011;60687;53.876;10.674;2023-03-11T07:35:49;14.37;;;7.63;;
72645;SDS011;60687;53.876;10.674;2023-03-11T07:46:00;14.67;;;8.10;;
72645;SDS011;60687;53.876;10.674;2023-03-11T07:56:05;13.80;;;7.35;;
72645;SDS011;60687;53.876;10.674;2023-03-11T08:06:11;12.55;;;6.80;;
72645;SDS011;60687;53.876;10.674;2023-03-11T08:16:16;13.40;;;6.87;;
72645;SDS011;60687;53.876;10.674;2023-03-11T08:26:20;11.80;;;4.93;;
72645;SDS011;60687;53.876;10.674;2023-03-11T08:36:24;10.45;;;5.10;;
72645;SDS011;60687;53.876;10.674;2023-03-11T08:46:27;11.00;;;5.80;;
72645;SDS011;60687;53.876;10.674;2023-03-11T08:56:32;11.20;;;5.13;;
72645;SDS011;60687;53.876;10.674;2023-03-11T09:06:34;9.05;;;4.60;;
72645;SDS011;60687;53.876;10.674;2023-03-11T09:16:37;9.60;;;4.63;;
72645;SDS011;60687;53.876;10.674;2023-03-11T09:26:40;9.00;;;4.33;;
72645;SDS011;60687;53.876;10.674;2023-03-11T09:36:44;8.77;;;4.05;;
72645;SDS011;60687;53.876;10.674;2023-03-11T09:57:18;8.20;;;3.30;;
72645;SDS011;60687;53.876;10.674;2023-03-11T10:07:26;9.13;;;3.77;;
72645;SDS011;60687;53.876;10.674;2023-03-11T10:17:45;6.72;;;2.70;;
72645;SDS011;60687;53.876;10.674;2023-03-11T10:27:56;7.47;;;2.90;;
72645;SDS011;60687;53.876;10.674;2023-03-11T10:38:09;7.93;;;2.87;;
72645;SDS011;60687;53.876;10.674;2023-03-11T10:48:16;8.05;;;2.70;;
72645;SDS011;60687;53.876;10.674;2023-03-11T10:58:21;6.80;;;2.50;;
72645;SDS011;60687;53.876;10.674;2023-03-11T11:08:25;6.73;;;2.73;;
72645;SDS011;60687;53.876;10.674;2023-03-11T11:18:30;8.05;;;3.00;;
72645;SDS011;60687;53.876;10.674;2023-03-11T11:28:34;8.85;;;2.97;;
72645;SDS011;60687;53.876;10.674;2023-03-11T11:38:38;8.23;;;3.00;;
72645;SDS011;60687;53.876;10.674;2023-03-11T11:48:43;7.03;;;2.90;;
72645;SDS011;60687;53.876;10.674;2023-03-11T11:58:52;6.32;;;2.40;;
72645;SDS011;60687;53.876;10.674;2023-03-11T12:08:58;8.40;;;2.43;;
72645;SDS011;60687;53.876;10.674;2023-03-11T12:19:20;6.37;;;2.50;;
72645;SDS011;60687;53.876;10.674;2023-03-11T12:29:31;7.93;;;2.85;;
72645;SDS011;60687;53.876;10.674;2023-03-11T12:39:37;6.17;;;2.00;;
72645;SDS011;60687;53.876;10.674;2023-03-11T12:49:40;6.47;;;2.77;;
72645;SDS011;60687;53.876;10.674;2023-03-11T12:59:52;8.30;;;2.67;;
72645;SDS011;60687;53.876;10.674;2023-03-11T13:10:38;7.47;;;2.50;;
72645;SDS011;60687;53.876;10.674;2023-03-11T13:20:44;6.27;;;2.40;;
72645;SDS011;60687;53.876;10.674;2023-03-11T13:30:49;6.47;;;1.97;;
72645;SDS011;60687;53.876;10.674;2023-03-11T13:40:58;5.38;;;1.90;;
72645;SDS011;60687;53.876;10.674;2023-03-11T13:51:03;5.50;;;1.63;;
72645;SDS011;60687;53.876;10.674;2023-03-11T14:01:13;5.40;;;1.50;;
72645;SDS011;60687;53.876;10.674;2023-03-11T14:11:19;5.45;;;1.50;;
72645;SDS011;60687;53.876;10.674;2023-03-11T14:21:27;4.23;;;1.17;;
72645;SDS011;60687;53.876;10.674;2023-03-11T14:31:31;4.37;;;1.70;;
72645;SDS011;60687;53.876;10.674;2023-03-11T14:41:37;5.10;;;1.50;;
72645;SDS011;60687;53.876;10.674;2023-03-11T14:51:40;5.35;;;1.40;;
72645;SDS011;60687;53.876;10.674;2023-03-11T15:01:44;5.70;;;1.63;;
72645;SDS011;60687;53.876;10.674;2023-03-11T15:11:48;5.03;;;1.57;;
72645;SDS011;60687;53.876;10.674;2023-03-11T15:21:57;5.50;;;1.35;;
72645;SDS011;60687;53.876;10.674;2023-03-11T15:32:33;6.50;;;1.87;;
72645;SDS011;60687;53.876;10.674;2023-03-11T15:42:40;4.63;;;1.50;;
72645;SDS011;60687;53.876;10.674;2023-03-11T15:52:43;7.30;;;1.70;;
72645;SDS011;60687;53.876;10.674;2023-03-11T16:02:46;3.83;;;1.57;;
72645;SDS011;60687;53.876;10.674;2023-03-11T16:12:49;5.27;;;1.80;;
72645;SDS011;60687;53.876;10.674;2023-03-11T16:22:53;5.53;;;1.98;;
72645;SDS011;60687;53.876;10.674;2023-03-11T16:32:57;4.90;;;1.50;;
72645;SDS011;60687;53.876;10.674;2023-03-11T16:43:02;5.60;;;1.63;;
72645;SDS011;60687;53.876;10.674;2023-03-11T16:53:05;6.03;;;2.10;;
72645;SDS011;60687;53.876;10.674;2023-03-11T17:03:10;5.20;;;1.95;;
72645;SDS011;60687;53.876;10.674;2023-03-11T17:13:12;7.53;;;2.17;;
72645;SDS011;60687;53.876;10.674;2023-03-11T17:23:16;5.60;;;1.93;;
72645;SDS011;60687;53.876;10.674;2023-03-11T17:33:18;6.35;;;2.22;;
72645;SDS011;60687;53.876;10.674;2023-03-11T17:43:22;6.27;;;2.03;;
72645;SDS011;60687;53.876;10.674;2023-03-11T17:53:24;7.17;;;2.47;;
72645;SDS011;60687;53.876;10.674;2023-03-11T18:03:28;6.85;;;2.65;;
72645;SDS011;60687;53.876;10.674;2023-03-11T18:13:30;7.00;;;2.40;;
72645;SDS011;60687;53.876;10.674;2023-03-11T18:23:35;8.00;;;2.50;;
72645;SDS011;60687;53.876;10.674;2023-03-11T18:33:38;7.60;;;2.73;;
72645;SDS011;60687;53.876;10.674;2023-03-11T18:43:41;6.65;;;2.20;;
72645;SDS011;60687;53.876;10.674;2023-03-11T18:53:44;8.70;;;3.37;;
72645;SDS011;60687;53.876;10.674;2023-03-11T19:03:49;8.73;;;3.50;;
72645;SDS011;60687;53.876;10.674;2023-03-11T19:13:52;9.82;;;3.45;;
72645;SDS011;60687;53.876;10.674;2023-03-11T19:23:56;9.27;;;4.23;;
72645;SDS011;60687;53.876;10.674;2023-03-11T19:33:59;6.90;;;3.20;;
72645;SDS011;60687;53.876;10.674;2023-03-11T19:44:04;9.35;;;3.72;;
72645;SDS011;60687;53.876;10.674;2023-03-11T19:54:07;8.73;;;3.53;;
72645;SDS011;60687;53.876;10.674;2023-03-11T20:04:14;9.50;;;3.30;;
72645;SDS011;60687;53.876;10.674;2023-03-11T20:14:17;7.97;;;3.57;;
72645;SDS011;60687;53.876;10.674;2023-03-11T20:24:20;8.82;;;3.13;;
72645;SDS011;60687;53.876;10.674;2023-03-11T20:34:23;6.37;;;3.00;;
72645;SDS011;60687;53.876;10.674;2023-03-11T20:44:28;6.90;;;2.70;;
72645;SDS011;60687;53.876;10.674;2023-03-11T20:54:30;7.38;;;3.80;;
72645;SDS011;60687;53.876;10.674;2023-03-11T21:04:34;6.40;;;2.70;;
72645;SDS011;60687;53.876;10.674;2023-03-11T21:14:40;6.37;;;3.33;;
72645;SDS011;60687;53.876;10.674;2023-03-11T21:24:44;7.93;;;4.45;;
72645;SDS011;60687;53.876;10.674;2023-03-11T21:34:46;8.20;;;3.65;;
72645;SDS011;60687;53.876;10.674;2023-03-11T21:44:51;7.03;;;3.33;;
72645;SDS011;60687;53.876;10.674;2023-03-11T21:54:53;6.90;;;3.30;;
72645;SDS011;60687;53.876;10.674;2023-03-11T22:04:57;8.38;;;3.72;;
72645;SDS011;60687;53.876;10.674;2023-03-11T22:14:59;6.97;;;3.70;;
72645;SDS011;60687;53.876;10.674;2023-03-11T22:25:04;8.33;;;4.20;;
72645;SDS011;60687;53.876;10.674;2023-03-11T22:35:07;8.38;;;4.25;;
72645;SDS011;60687;53.876;10.674;2023-03-11T22:45:12;11.00;;;3.90;;
72645;SDS011;60687;53.876;10.674;2023-03-11T22:55:14;9.57;;;4.33;;
72645;SDS011;60687;53.876;10.674;2023-03-11T23:05:19;7.85;;;4.05;;
72645;SDS011;60687;53.876;10.674;2023-03-11T23:15:21;9.50;;;4.78;;
72645;SDS011;60687;53.876;10.674;2023-03-11T23:25:25;9.30;;;4.43;;
72645;SDS011;60687;53.876;10.674;2023-03-11T23:35:27;9.90;;;4.70;;
72645;SDS011;60687;53.876;10.674;2023-03-11T23:45:31;9.05;;;4.45;;
72645;SDS011;60687;53.876;10.674;2023-03-11T23:55:35;8.60;;;4.13;;
